sensor_id;sensor_type;location;lat;lon;timestamp;P1;durP1;ratioP1;P2;durP2;ratioP2
10801;SDS011;5453;50.852;7.102;2022-10-16T00:01:04;1.15;;;1.10;;
10801;SDS011;5453;50.852;7.102;2022-10-16T00:03:38;1.73;;;0.98;;
10801;SDS011;5453;50.852;7.102;2022-10-16T00:06:10;1.63;;;1.15;;
10801;SDS011;5453;50.852;7.102;2022-10-16T00:08:45;1.88;;;1.30;;
10801;SDS011;5453;50.852;7.102;2022-10-16T00:11:18;1.38;;;1.27;;
10801;SDS011;5453;50.852;7.102;2022-10-16T00:18:59;1.48;;;1.00;;
10801;SDS011;5453;50.852;7.102;2022-10-16T00:21:31;1.58;;;1.10;;
10801;SDS011;5453;50.852;7.102;2022-10-16T00:24:07;1.70;;;1.17;;
10801;SDS011;5453;50.852;7.102;2022-10-16T00:26:41;2.08;;;1.30;;
10801;SDS011;5453;50.852;7.102;2022-10-16T00:29:14;1.40;;;1.00;;
10801;SDS011;5453;50.852;7.102;2022-10-16T00:31:46;1.85;;;1.30;;
10801;SDS011;5453;50.852;7.102;2022-10-16T00:34:18;1.40;;;1.30;;
10801;SDS011;5453;50.852;7.102;2022-10-16T00:36:50;1.13;;;0.93;;
10801;SDS011;5453;50.852;7.102;2022-10-16T00:39:24;1.17;;;0.80;;
10801;SDS011;5453;50.852;7.102;2022-10-16T00:41:56;1.33;;;1.23;;
10801;SDS011;5453;50.852;7.102;2022-10-16T00:44:42;1.88;;;1.20;;
10801;SDS011;5453;50.852;7.102;2022-10-16T00:47:21;1.30;;;1.00;;
10801;SDS011;5453;50.852;7.102;2022-10-16T00:49:59;1.70;;;1.40;;
10801;SDS011;5453;50.852;7.102;2022-10-16T00:52:36;1.30;;;0.90;;
10801;SDS011;5453;50.852;7.102;2022-10-16T00:55:14;1.90;;;1.10;;
10801;SDS011;5453;50.852;7.102;2022-10-16T00:57:47;1.73;;;1.40;;
10801;SDS011;5453;50.852;7.102;2022-10-16T01:02:57;2.47;;;1.02;;
10801;SDS011;5453;50.852;7.102;2022-10-16T01:08:08;1.42;;;1.33;;
10801;SDS011;5453;50.852;7.102;2022-10-16T01:10:50;1.23;;;0.93;;
10801;SDS011;5453;50.852;7.102;2022-10-16T01:13:30;1.25;;;1.00;;
10801;SDS011;5453;50.852;7.102;2022-10-16T01:16:10;0.90;;;0.70;;
10801;SDS011;5453;50.852;7.102;2022-10-16T01:18:49;1.23;;;0.90;;
10801;SDS011;5453;50.852;7.102;2022-10-16T01:21:27;1.40;;;0.90;;
10801;SDS011;5453;50.852;7.102;2022-10-16T01:24:06;0.93;;;0.82;;
10801;SDS011;5453;50.852;7.102;2022-10-16T01:26:58;0.70;;;0.70;;
10801;SDS011;5453;50.852;7.102;2022-10-16T01:29:40;3.42;;;0.80;;
10801;SDS011;5453;50.852;7.102;2022-10-16T01:32:24;0.98;;;0.77;;
10801;SDS011;5453;50.852;7.102;2022-10-16T01:35:03;2.70;;;1.00;;
10801;SDS011;5453;50.852;7.102;2022-10-16T01:37:43;0.85;;;0.70;;
10801;SDS011;5453;50.852;7.102;2022-10-16T01:40:23;1.40;;;1.30;;
10801;SDS011;5453;50.852;7.102;2022-10-16T01:43:02;1.10;;;1.00;;
10801;SDS011;5453;50.852;7.102;2022-10-16T01:45:38;0.70;;;0.70;;
10801;SDS011;5453;50.852;7.102;2022-10-16T01:48:15;0.73;;;0.65;;
10801;SDS011;5453;50.852;7.102;2022-10-16T01:50:54;1.20;;;1.10;;
10801;SDS011;5453;50.852;7.102;2022-10-16T01:53:31;1.02;;;0.70;;
10801;SDS011;5453;50.852;7.102;2022-10-16T01:56:04;1.08;;;0.88;;
10801;SDS011;5453;50.852;7.102;2022-10-16T01:58:43;1.52;;;1.42;;
10801;SDS011;5453;50.852;7.102;2022-10-16T02:01:20;1.63;;;1.15;;
10801;SDS011;5453;50.852;7.102;2022-10-16T02:03:57;1.42;;;1.00;;
10801;SDS011;5453;50.852;7.102;2022-10-16T02:06:36;1.13;;;0.90;;
10801;SDS011;5453;50.852;7.102;2022-10-16T02:09:08;1.02;;;0.80;;
10801;SDS011;5453;50.852;7.102;2022-10-16T02:11:40;1.92;;;0.82;;
10801;SDS011;5453;50.852;7.102;2022-10-16T02:14:14;0.98;;;0.90;;
10801;SDS011;5453;50.852;7.102;2022-10-16T02:16:47;1.33;;;0.82;;
10801;SDS011;5453;50.852;7.102;2022-10-16T02:19:19;1.25;;;0.90;;
10801;SDS011;5453;50.852;7.102;2022-10-16T02:21:54;1.58;;;1.02;;
10801;SDS011;5453;50.852;7.102;2022-10-16T02:24:29;0.82;;;0.80;;
10801;SDS011;5453;50.852;7.102;2022-10-16T02:27:09;1.85;;;1.20;;
10801;SDS011;5453;50.852;7.102;2022-10-16T02:29:47;1.60;;;1.10;;
10801;SDS011;5453;50.852;7.102;2022-10-16T02:32:29;1.38;;;1.00;;
10801;SDS011;5453;50.852;7.102;2022-10-16T02:35:04;1.73;;;1.10;;
10801;SDS011;5453;50.852;7.102;2022-10-16T02:37:38;1.30;;;1.05;;
10801;SDS011;5453;50.852;7.102;2022-10-16T02:40:13;1.33;;;1.00;;
10801;SDS011;5453;50.852;7.102;2022-10-16T02:42:49;1.27;;;1.00;;
10801;SDS011;5453;50.852;7.102;2022-10-16T02:45:25;1.15;;;0.90;;
10801;SDS011;5453;50.852;7.102;2022-10-16T02:47:57;1.58;;;1.30;;
10801;SDS011;5453;50.852;7.102;2022-10-16T02:50:29;1.58;;;0.90;;
10801;SDS011;5453;50.852;7.102;2022-10-16T02:53:02;1.83;;;1.05;;
10801;SDS011;5453;50.852;7.102;2022-10-16T02:55:34;1.80;;;1.10;;
10801;SDS011;5453;50.852;7.102;2022-10-16T02:58:07;1.48;;;1.00;;
10801;SDS011;5453;50.852;7.102;2022-10-16T03:00:40;1.33;;;1.23;;
10801;SDS011;5453;50.852;7.102;2022-10-16T03:03:14;0.85;;;0.80;;
10801;SDS011;5453;50.852;7.102;2022-10-16T03:05:46;1.40;;;0.98;;
10801;SDS011;5453;50.852;7.102;2022-10-16T03:08:19;1.60;;;1.25;;
10801;SDS011;5453;50.852;7.102;2022-10-16T03:10:53;1.42;;;0.82;;
10801;SDS011;5453;50.852;7.102;2022-10-16T03:13:25;0.90;;;0.80;;
10801;SDS011;5453;50.852;7.102;2022-10-16T03:15:59;1.67;;;1.10;;
10801;SDS011;5453;50.852;7.102;2022-10-16T03:18:33;1.08;;;0.98;;
10801;SDS011;5453;50.852;7.102;2022-10-16T03:21:08;3.67;;;1.70;;
10801;SDS011;5453;50.852;7.102;2022-10-16T03:23:41;1.05;;;0.95;;
10801;SDS011;5453;50.852;7.102;2022-10-16T03:26:16;1.23;;;1.00;;
10801;SDS011;5453;50.852;7.102;2022-10-16T03:28:49;1.00;;;0.90;;
10801;SDS011;5453;50.852;7.102;2022-10-16T03:31:22;1.42;;;1.10;;
10801;SDS011;5453;50.852;7.102;2022-10-16T03:33:55;2.97;;;1.02;;
10801;SDS011;5453;50.852;7.102;2022-10-16T03:36:27;1.20;;;1.10;;
10801;SDS011;5453;50.852;7.102;2022-10-16T03:39:00;1.65;;;0.98;;
10801;SDS011;5453;50.852;7.102;2022-10-16T03:41:32;1.65;;;1.15;;
10801;SDS011;5453;50.852;7.102;2022-10-16T03:44:04;1.30;;;0.80;;
10801;SDS011;5453;50.852;7.102;2022-10-16T03:46:38;1.30;;;1.13;;
10801;SDS011;5453;50.852;7.102;2022-10-16T03:49:10;1.38;;;1.00;;
10801;SDS011;5453;50.852;7.102;2022-10-16T03:51:42;0.88;;;0.80;;
10801;SDS011;5453;50.852;7.102;2022-10-16T03:54:14;0.95;;;0.70;;
10801;SDS011;5453;50.852;7.102;2022-10-16T03:56:46;1.10;;;0.80;;
10801;SDS011;5453;50.852;7.102;2022-10-16T03:59:18;1.17;;;0.70;;
10801;SDS011;5453;50.852;7.102;2022-10-16T04:01:52;0.88;;;0.88;;
10801;SDS011;5453;50.852;7.102;2022-10-16T04:04:24;1.20;;;0.70;;
10801;SDS011;5453;50.852;7.102;2022-10-16T04:06:56;1.00;;;0.90;;
10801;SDS011;5453;50.852;7.102;2022-10-16T04:09:28;0.77;;;0.70;;
10801;SDS011;5453;50.852;7.102;2022-10-16T04:12:00;1.48;;;0.90;;
10801;SDS011;5453;50.852;7.102;2022-10-16T04:14:32;0.75;;;0.70;;
10801;SDS011;5453;50.852;7.102;2022-10-16T04:17:06;1.15;;;1.05;;
10801;SDS011;5453;50.852;7.102;2022-10-16T04:19:38;4.28;;;0.85;;
10801;SDS011;5453;50.852;7.102;2022-10-16T04:22:11;0.80;;;0.70;;
10801;SDS011;5453;50.852;7.102;2022-10-16T04:24:43;1.02;;;0.80;;
10801;SDS011;5453;50.852;7.102;2022-10-16T04:27:15;1.05;;;0.80;;
10801;SDS011;5453;50.852;7.102;2022-10-16T04:29:47;1.00;;;0.80;;
10801;SDS011;5453;50.852;7.102;2022-10-16T04:32:20;1.63;;;0.93;;
10801;SDS011;5453;50.852;7.102;2022-10-16T04:34:52;0.98;;;0.85;;
10801;SDS011;5453;50.852;7.102;2022-10-16T04:37:25;0.75;;;0.70;;
10801;SDS011;5453;50.852;7.102;2022-10-16T04:39:57;1.08;;;0.80;;
10801;SDS011;5453;50.852;7.102;2022-10-16T04:42:29;0.70;;;0.70;;
10801;SDS011;5453;50.852;7.102;2022-10-16T04:45:02;0.80;;;0.50;;
10801;SDS011;5453;50.852;7.102;2022-10-16T04:47:36;0.90;;;0.90;;
10801;SDS011;5453;50.852;7.102;2022-10-16T04:50:08;1.05;;;0.60;;
10801;SDS011;5453;50.852;7.102;2022-10-16T04:52:40;0.80;;;0.60;;
10801;SDS011;5453;50.852;7.102;2022-10-16T04:55:13;2.08;;;0.60;;
10801;SDS011;5453;50.852;7.102;2022-10-16T04:57:45;1.35;;;0.80;;
10801;SDS011;5453;50.852;7.102;2022-10-16T05:00:17;0.98;;;0.98;;
10801;SDS011;5453;50.852;7.102;2022-10-16T05:02:50;0.70;;;0.70;;
10801;SDS011;5453;50.852;7.102;2022-10-16T05:05:23;1.38;;;0.70;;
10801;SDS011;5453;50.852;7.102;2022-10-16T05:07:55;1.00;;;0.90;;
10801;SDS011;5453;50.852;7.102;2022-10-16T05:10:27;0.85;;;0.85;;
10801;SDS011;5453;50.852;7.102;2022-10-16T05:12:59;0.60;;;0.60;;
10801;SDS011;5453;50.852;7.102;2022-10-16T05:15:31;0.73;;;0.70;;
10801;SDS011;5453;50.852;7.102;2022-10-16T05:18:04;0.90;;;0.70;;
10801;SDS011;5453;50.852;7.102;2022-10-16T05:20:36;0.50;;;0.50;;
10801;SDS011;5453;50.852;7.102;2022-10-16T05:23:09;1.95;;;0.70;;
10801;SDS011;5453;50.852;7.102;2022-10-16T05:25:41;2.22;;;1.20;;
10801;SDS011;5453;50.852;7.102;2022-10-16T05:28:13;0.70;;;0.70;;
10801;SDS011;5453;50.852;7.102;2022-10-16T05:30:45;1.67;;;0.77;;
10801;SDS011;5453;50.852;7.102;2022-10-16T05:33:20;1.35;;;0.80;;
10801;SDS011;5453;50.852;7.102;2022-10-16T05:35:53;1.10;;;0.93;;
10801;SDS011;5453;50.852;7.102;2022-10-16T05:38:25;1.20;;;1.10;;
10801;SDS011;5453;50.852;7.102;2022-10-16T05:40:57;0.70;;;0.70;;
10801;SDS011;5453;50.852;7.102;2022-10-16T05:43:30;1.25;;;0.65;;
10801;SDS011;5453;50.852;7.102;2022-10-16T05:46:04;0.80;;;0.80;;
10801;SDS011;5453;50.852;7.102;2022-10-16T05:48:38;0.60;;;0.60;;
10801;SDS011;5453;50.852;7.102;2022-10-16T05:51:11;0.70;;;0.60;;
10801;SDS011;5453;50.852;7.102;2022-10-16T05:53:45;0.85;;;0.85;;
10801;SDS011;5453;50.852;7.102;2022-10-16T05:56:17;1.35;;;0.93;;
10801;SDS011;5453;50.852;7.102;2022-10-16T05:58:49;0.60;;;0.60;;
10801;SDS011;5453;50.852;7.102;2022-10-16T06:01:21;0.70;;;0.70;;
10801;SDS011;5453;50.852;7.102;2022-10-16T06:03:55;1.20;;;0.70;;
10801;SDS011;5453;50.852;7.102;2022-10-16T06:06:28;0.85;;;0.85;;
10801;SDS011;5453;50.852;7.102;2022-10-16T06:09:01;0.95;;;0.80;;
10801;SDS011;5453;50.852;7.102;2022-10-16T06:11:33;0.80;;;0.80;;
10801;SDS011;5453;50.852;7.102;2022-10-16T06:14:05;1.08;;;0.68;;
10801;SDS011;5453;50.852;7.102;2022-10-16T06:16:37;1.30;;;0.80;;
10801;SDS011;5453;50.852;7.102;2022-10-16T06:19:11;0.93;;;0.88;;
10801;SDS011;5453;50.852;7.102;2022-10-16T06:21:43;0.70;;;0.70;;
10801;SDS011;5453;50.852;7.102;2022-10-16T06:24:15;1.83;;;0.85;;
10801;SDS011;5453;50.852;7.102;2022-10-16T06:26:47;2.00;;;1.05;;
10801;SDS011;5453;50.852;7.102;2022-10-16T06:29:19;1.45;;;1.08;;
10801;SDS011;5453;50.852;7.102;2022-10-16T06:31:51;2.08;;;1.88;;
10801;SDS011;5453;50.852;7.102;2022-10-16T06:34:25;4.75;;;2.88;;
10801;SDS011;5453;50.852;7.102;2022-10-16T06:36:57;3.47;;;2.60;;
10801;SDS011;5453;50.852;7.102;2022-10-16T06:39:29;3.00;;;2.35;;
10801;SDS011;5453;50.852;7.102;2022-10-16T06:42:01;3.80;;;2.08;;
10801;SDS011;5453;50.852;7.102;2022-10-16T06:44:39;2.65;;;2.00;;
10801;SDS011;5453;50.852;7.102;2022-10-16T06:47:11;2.00;;;1.80;;
10801;SDS011;5453;50.852;7.102;2022-10-16T06:49:45;2.47;;;2.20;;
10801;SDS011;5453;50.852;7.102;2022-10-16T06:52:17;3.00;;;1.60;;
10801;SDS011;5453;50.852;7.102;2022-10-16T06:54:50;2.42;;;1.90;;
10801;SDS011;5453;50.852;7.102;2022-10-16T06:57:22;2.20;;;1.92;;
10801;SDS011;5453;50.852;7.102;2022-10-16T06:59:54;2.47;;;2.03;;
10801;SDS011;5453;50.852;7.102;2022-10-16T07:02:26;2.75;;;1.75;;
10801;SDS011;5453;50.852;7.102;2022-10-16T07:04:59;2.17;;;1.80;;
10801;SDS011;5453;50.852;7.102;2022-10-16T07:07:31;1.70;;;1.60;;
10801;SDS011;5453;50.852;7.102;2022-10-16T07:10:04;2.78;;;1.90;;
10801;SDS011;5453;50.852;7.102;2022-10-16T07:12:36;4.72;;;2.95;;
10801;SDS011;5453;50.852;7.102;2022-10-16T07:15:09;2.80;;;2.25;;
10801;SDS011;5453;50.852;7.102;2022-10-16T07:17:42;5.25;;;2.60;;
10801;SDS011;5453;50.852;7.102;2022-10-16T07:20:16;3.40;;;2.58;;
10801;SDS011;5453;50.852;7.102;2022-10-16T07:22:48;3.15;;;2.00;;
10801;SDS011;5453;50.852;7.102;2022-10-16T07:25:20;3.35;;;2.42;;
10801;SDS011;5453;50.852;7.102;2022-10-16T07:27:52;2.38;;;1.58;;
10801;SDS011;5453;50.852;7.102;2022-10-16T07:32:58;1.83;;;1.40;;
10801;SDS011;5453;50.852;7.102;2022-10-16T07:35:32;1.70;;;1.25;;
10801;SDS011;5453;50.852;7.102;2022-10-16T07:38:04;1.83;;;1.42;;
10801;SDS011;5453;50.852;7.102;2022-10-16T07:40:36;1.95;;;1.60;;
10801;SDS011;5453;50.852;7.102;2022-10-16T07:43:08;2.17;;;1.40;;
10801;SDS011;5453;50.852;7.102;2022-10-16T07:45:46;1.92;;;1.52;;
10801;SDS011;5453;50.852;7.102;2022-10-16T07:48:19;2.03;;;1.40;;
10801;SDS011;5453;50.852;7.102;2022-10-16T07:50:56;1.90;;;1.60;;
10801;SDS011;5453;50.852;7.102;2022-10-16T07:53:29;2.00;;;1.80;;
10801;SDS011;5453;50.852;7.102;2022-10-16T07:56:02;2.00;;;1.90;;
10801;SDS011;5453;50.852;7.102;2022-10-16T07:58:36;1.60;;;1.42;;
10801;SDS011;5453;50.852;7.102;2022-10-16T08:01:09;2.15;;;1.50;;
10801;SDS011;5453;50.852;7.102;2022-10-16T08:03:44;4.07;;;2.03;;
10801;SDS011;5453;50.852;7.102;2022-10-16T08:06:20;1.48;;;1.20;;
10801;SDS011;5453;50.852;7.102;2022-10-16T08:08:54;2.85;;;1.60;;
10801;SDS011;5453;50.852;7.102;2022-10-16T08:11:26;1.67;;;1.33;;
10801;SDS011;5453;50.852;7.102;2022-10-16T08:14:01;1.60;;;1.45;;
10801;SDS011;5453;50.852;7.102;2022-10-16T08:16:33;2.95;;;1.55;;
10801;SDS011;5453;50.852;7.102;2022-10-16T08:19:05;2.47;;;1.58;;
10801;SDS011;5453;50.852;7.102;2022-10-16T08:21:38;2.72;;;1.50;;
10801;SDS011;5453;50.852;7.102;2022-10-16T08:24:10;2.95;;;1.90;;
10801;SDS011;5453;50.852;7.102;2022-10-16T08:26:43;1.65;;;1.20;;
10801;SDS011;5453;50.852;7.102;2022-10-16T08:29:15;3.28;;;1.90;;
10801;SDS011;5453;50.852;7.102;2022-10-16T08:31:47;2.38;;;1.52;;
10801;SDS011;5453;50.852;7.102;2022-10-16T08:34:21;2.17;;;1.30;;
10801;SDS011;5453;50.852;7.102;2022-10-16T08:36:54;1.52;;;1.25;;
10801;SDS011;5453;50.852;7.102;2022-10-16T08:39:26;1.95;;;0.90;;
10801;SDS011;5453;50.852;7.102;2022-10-16T08:42:02;1.00;;;0.85;;
10801;SDS011;5453;50.852;7.102;2022-10-16T08:44:57;1.27;;;0.77;;
10801;SDS011;5453;50.852;7.102;2022-10-16T08:47:58;1.25;;;1.10;;
10801;SDS011;5453;50.852;7.102;2022-10-16T08:50:40;1.23;;;0.60;;
10801;SDS011;5453;50.852;7.102;2022-10-16T08:53:15;1.73;;;0.70;;
10801;SDS011;5453;50.852;7.102;2022-10-16T08:55:53;1.25;;;0.73;;
10801;SDS011;5453;50.852;7.102;2022-10-16T08:58:26;1.40;;;0.73;;
10801;SDS011;5453;50.852;7.102;2022-10-16T09:01:01;4.05;;;0.90;;
10801;SDS011;5453;50.852;7.102;2022-10-16T09:03:40;1.10;;;0.80;;
10801;SDS011;5453;50.852;7.102;2022-10-16T09:06:35;1.67;;;0.75;;
10801;SDS011;5453;50.852;7.102;2022-10-16T09:09:26;1.05;;;0.50;;
10801;SDS011;5453;50.852;7.102;2022-10-16T09:12:12;0.75;;;0.60;;
10801;SDS011;5453;50.852;7.102;2022-10-16T09:14:56;1.48;;;0.70;;
10801;SDS011;5453;50.852;7.102;2022-10-16T09:17:38;1.25;;;0.65;;
10801;SDS011;5453;50.852;7.102;2022-10-16T09:20:22;1.30;;;0.47;;
10801;SDS011;5453;50.852;7.102;2022-10-16T09:23:10;1.13;;;0.60;;
10801;SDS011;5453;50.852;7.102;2022-10-16T09:25:50;1.17;;;0.57;;
10801;SDS011;5453;50.852;7.102;2022-10-16T09:28:22;0.55;;;0.30;;
10801;SDS011;5453;50.852;7.102;2022-10-16T09:30:54;0.55;;;0.45;;
10801;SDS011;5453;50.852;7.102;2022-10-16T09:33:28;1.27;;;0.40;;
10801;SDS011;5453;50.852;7.102;2022-10-16T09:36:05;0.57;;;0.50;;
10801;SDS011;5453;50.852;7.102;2022-10-16T09:38:37;2.53;;;0.50;;
10801;SDS011;5453;50.852;7.102;2022-10-16T09:41:15;1.25;;;0.60;;
10801;SDS011;5453;50.852;7.102;2022-10-16T09:46:26;1.10;;;0.40;;
10801;SDS011;5453;50.852;7.102;2022-10-16T09:51:34;0.60;;;0.50;;
10801;SDS011;5453;50.852;7.102;2022-10-16T09:54:13;1.58;;;0.50;;
10801;SDS011;5453;50.852;7.102;2022-10-16T09:56:48;1.00;;;0.40;;
10801;SDS011;5453;50.852;7.102;2022-10-16T09:59:22;0.60;;;0.60;;
10801;SDS011;5453;50.852;7.102;2022-10-16T10:01:56;3.22;;;0.75;;
10801;SDS011;5453;50.852;7.102;2022-10-16T10:04:38;1.10;;;0.57;;
10801;SDS011;5453;50.852;7.102;2022-10-16T10:07:17;0.40;;;0.40;;
10801;SDS011;5453;50.852;7.102;2022-10-16T10:09:52;1.50;;;0.50;;
10801;SDS011;5453;50.852;7.102;2022-10-16T10:12:28;1.27;;;0.30;;
10801;SDS011;5453;50.852;7.102;2022-10-16T10:15:03;0.55;;;0.43;;
10801;SDS011;5453;50.852;7.102;2022-10-16T10:17:45;0.50;;;0.30;;
10801;SDS011;5453;50.852;7.102;2022-10-16T10:20:23;3.08;;;0.40;;
10801;SDS011;5453;50.852;7.102;2022-10-16T10:22:58;0.40;;;0.40;;
10801;SDS011;5453;50.852;7.102;2022-10-16T10:25:34;0.60;;;0.30;;
10801;SDS011;5453;50.852;7.102;2022-10-16T10:28:41;2.38;;;0.60;;
10801;SDS011;5453;50.852;7.102;2022-10-16T10:31:25;1.77;;;0.50;;
10801;SDS011;5453;50.852;7.102;2022-10-16T10:34:04;0.45;;;0.20;;
10801;SDS011;5453;50.852;7.102;2022-10-16T10:37:00;1.15;;;0.30;;
10801;SDS011;5453;50.852;7.102;2022-10-16T10:39:54;2.08;;;0.40;;
10801;SDS011;5453;50.852;7.102;2022-10-16T10:42:35;0.82;;;0.47;;
10801;SDS011;5453;50.852;7.102;2022-10-16T10:45:18;0.70;;;0.47;;
10801;SDS011;5453;50.852;7.102;2022-10-16T10:48:09;0.57;;;0.57;;
10801;SDS011;5453;50.852;7.102;2022-10-16T10:50:56;0.65;;;0.50;;
10801;SDS011;5453;50.852;7.102;2022-10-16T10:53:36;0.55;;;0.20;;
10801;SDS011;5453;50.852;7.102;2022-10-16T10:56:19;0.40;;;0.40;;
10801;SDS011;5453;50.852;7.102;2022-10-16T10:59:24;0.68;;;0.47;;
10801;SDS011;5453;50.852;7.102;2022-10-16T11:02:29;0.40;;;0.25;;
10801;SDS011;5453;50.852;7.102;2022-10-16T11:05:21;1.85;;;0.22;;
10801;SDS011;5453;50.852;7.102;2022-10-16T11:08:06;1.33;;;0.60;;
10801;SDS011;5453;50.852;7.102;2022-10-16T11:10:46;1.02;;;0.30;;
10801;SDS011;5453;50.852;7.102;2022-10-16T11:13:26;0.55;;;0.43;;
10801;SDS011;5453;50.852;7.102;2022-10-16T11:16:07;1.67;;;0.40;;
10801;SDS011;5453;50.852;7.102;2022-10-16T11:18:49;1.30;;;0.20;;
10801;SDS011;5453;50.852;7.102;2022-10-16T11:21:26;1.65;;;0.40;;
10801;SDS011;5453;50.852;7.102;2022-10-16T11:24:10;1.65;;;0.50;;
10801;SDS011;5453;50.852;7.102;2022-10-16T11:26:50;1.42;;;0.63;;
10801;SDS011;5453;50.852;7.102;2022-10-16T11:29:26;1.75;;;0.60;;
10801;SDS011;5453;50.852;7.102;2022-10-16T11:32:05;0.82;;;0.45;;
10801;SDS011;5453;50.852;7.102;2022-10-16T11:34:49;0.20;;;0.20;;
10801;SDS011;5453;50.852;7.102;2022-10-16T11:37:27;0.20;;;0.20;;
10801;SDS011;5453;50.852;7.102;2022-10-16T11:40:10;0.30;;;0.28;;
10801;SDS011;5453;50.852;7.102;2022-10-16T11:42:52;1.95;;;0.45;;
10801;SDS011;5453;50.852;7.102;2022-10-16T11:45:30;0.40;;;0.40;;
10801;SDS011;5453;50.852;7.102;2022-10-16T11:50:51;0.30;;;0.30;;
10801;SDS011;5453;50.852;7.102;2022-10-16T11:53:32;1.77;;;0.68;;
10801;SDS011;5453;50.852;7.102;2022-10-16T11:56:15;2.05;;;0.80;;
10801;SDS011;5453;50.852;7.102;2022-10-16T11:58:52;0.50;;;0.43;;
10801;SDS011;5453;50.852;7.102;2022-10-16T12:01:29;1.52;;;0.50;;
10801;SDS011;5453;50.852;7.102;2022-10-16T12:04:16;2.30;;;0.77;;
10801;SDS011;5453;50.852;7.102;2022-10-16T12:06:57;0.82;;;0.57;;
10801;SDS011;5453;50.852;7.102;2022-10-16T12:09:36;1.88;;;0.50;;
10801;SDS011;5453;50.852;7.102;2022-10-16T12:12:24;1.85;;;0.63;;
10801;SDS011;5453;50.852;7.102;2022-10-16T12:15:02;0.85;;;0.40;;
10801;SDS011;5453;50.852;7.102;2022-10-16T12:17:50;1.17;;;0.52;;
10801;SDS011;5453;50.852;7.102;2022-10-16T12:20:24;0.90;;;0.40;;
10801;SDS011;5453;50.852;7.102;2022-10-16T12:23:03;1.00;;;0.40;;
10801;SDS011;5453;50.852;7.102;2022-10-16T12:25:37;2.15;;;0.40;;
10801;SDS011;5453;50.852;7.102;2022-10-16T12:28:18;1.52;;;0.30;;
10801;SDS011;5453;50.852;7.102;2022-10-16T12:30:53;0.43;;;0.30;;
10801;SDS011;5453;50.852;7.102;2022-10-16T12:33:28;0.45;;;0.30;;
10801;SDS011;5453;50.852;7.102;2022-10-16T12:36:03;1.58;;;0.38;;
10801;SDS011;5453;50.852;7.102;2022-10-16T12:38:48;0.55;;;0.17;;
10801;SDS011;5453;50.852;7.102;2022-10-16T12:41:24;0.75;;;0.40;;
10801;SDS011;5453;50.852;7.102;2022-10-16T12:43:58;0.50;;;0.25;;
10801;SDS011;5453;50.852;7.102;2022-10-16T12:46:37;0.20;;;0.20;;
10801;SDS011;5453;50.852;7.102;2022-10-16T12:49:29;1.98;;;0.40;;
10801;SDS011;5453;50.852;7.102;2022-10-16T12:52:03;0.50;;;0.30;;
10801;SDS011;5453;50.852;7.102;2022-10-16T12:54:37;0.47;;;0.30;;
10801;SDS011;5453;50.852;7.102;2022-10-16T12:57:27;0.30;;;0.30;;
10801;SDS011;5453;50.852;7.102;2022-10-16T13:00:14;0.57;;;0.43;;
10801;SDS011;5453;50.852;7.102;2022-10-16T13:03:11;0.40;;;0.20;;
10801;SDS011;5453;50.852;7.102;2022-10-16T13:06:09;2.08;;;1.17;;
10801;SDS011;5453;50.852;7.102;2022-10-16T13:11:47;0.47;;;0.35;;
10801;SDS011;5453;50.852;7.102;2022-10-16T13:14:37;1.35;;;0.30;;
10801;SDS011;5453;50.852;7.102;2022-10-16T13:17:32;1.17;;;0.30;;
10801;SDS011;5453;50.852;7.102;2022-10-16T13:20:16;3.28;;;1.25;;
10801;SDS011;5453;50.852;7.102;2022-10-16T13:22:56;1.17;;;0.30;;
10801;SDS011;5453;50.852;7.102;2022-10-16T13:25:43;0.68;;;0.32;;
10801;SDS011;5453;50.852;7.102;2022-10-16T13:28:30;0.20;;;0.20;;
10801;SDS011;5453;50.852;7.102;2022-10-16T13:31:04;2.13;;;0.30;;
10801;SDS011;5453;50.852;7.102;2022-10-16T13:33:46;0.20;;;0.20;;
10801;SDS011;5453;50.852;7.102;2022-10-16T13:36:25;1.27;;;0.40;;
10801;SDS011;5453;50.852;7.102;2022-10-16T13:39:01;1.15;;;0.40;;
10801;SDS011;5453;50.852;7.102;2022-10-16T13:41:44;1.95;;;0.90;;
10801;SDS011;5453;50.852;7.102;2022-10-16T13:44:18;0.30;;;0.30;;
10801;SDS011;5453;50.852;7.102;2022-10-16T13:46:57;0.75;;;0.50;;
10801;SDS011;5453;50.852;7.102;2022-10-16T13:49:30;0.68;;;0.30;;
10801;SDS011;5453;50.852;7.102;2022-10-16T13:52:02;0.28;;;0.28;;
10801;SDS011;5453;50.852;7.102;2022-10-16T13:54:34;0.52;;;0.30;;
10801;SDS011;5453;50.852;7.102;2022-10-16T13:57:07;0.50;;;0.50;;
10801;SDS011;5453;50.852;7.102;2022-10-16T13:59:41;0.65;;;0.30;;
10801;SDS011;5453;50.852;7.102;2022-10-16T14:02:16;1.48;;;0.40;;
10801;SDS011;5453;50.852;7.102;2022-10-16T14:04:54;0.75;;;0.50;;
10801;SDS011;5453;50.852;7.102;2022-10-16T14:07:27;1.60;;;0.57;;
10801;SDS011;5453;50.852;7.102;2022-10-16T14:10:03;1.55;;;0.60;;
10801;SDS011;5453;50.852;7.102;2022-10-16T14:12:38;0.95;;;0.68;;
10801;SDS011;5453;50.852;7.102;2022-10-16T14:15:16;1.17;;;0.85;;
10801;SDS011;5453;50.852;7.102;2022-10-16T14:17:50;0.30;;;0.30;;
10801;SDS011;5453;50.852;7.102;2022-10-16T14:20:25;2.00;;;0.40;;
10801;SDS011;5453;50.852;7.102;2022-10-16T14:23:01;0.90;;;0.40;;
10801;SDS011;5453;50.852;7.102;2022-10-16T14:25:35;1.48;;;0.57;;
10801;SDS011;5453;50.852;7.102;2022-10-16T14:28:14;0.88;;;0.50;;
10801;SDS011;5453;50.852;7.102;2022-10-16T14:30:50;3.38;;;1.10;;
10801;SDS011;5453;50.852;7.102;2022-10-16T14:33:31;1.60;;;0.50;;
10801;SDS011;5453;50.852;7.102;2022-10-16T14:36:05;0.43;;;0.30;;
10801;SDS011;5453;50.852;7.102;2022-10-16T14:38:50;0.88;;;0.60;;
10801;SDS011;5453;50.852;7.102;2022-10-16T14:41:32;1.02;;;0.50;;
10801;SDS011;5453;50.852;7.102;2022-10-16T14:44:13;0.50;;;0.50;;
10801;SDS011;5453;50.852;7.102;2022-10-16T14:46:47;0.55;;;0.40;;
10801;SDS011;5453;50.852;7.102;2022-10-16T14:49:19;1.33;;;0.20;;
10801;SDS011;5453;50.852;7.102;2022-10-16T14:51:53;0.30;;;0.30;;
10801;SDS011;5453;50.852;7.102;2022-10-16T14:54:25;0.32;;;0.20;;
10801;SDS011;5453;50.852;7.102;2022-10-16T14:56:57;0.20;;;0.20;;
10801;SDS011;5453;50.852;7.102;2022-10-16T14:59:31;1.38;;;0.30;;
10801;SDS011;5453;50.852;7.102;2022-10-16T15:02:16;0.70;;;0.50;;
10801;SDS011;5453;50.852;7.102;2022-10-16T15:04:54;0.82;;;0.30;;
10801;SDS011;5453;50.852;7.102;2022-10-16T15:07:27;0.75;;;0.40;;
10801;SDS011;5453;50.852;7.102;2022-10-16T15:09:59;0.55;;;0.40;;
10801;SDS011;5453;50.852;7.102;2022-10-16T15:12:31;0.57;;;0.52;;
10801;SDS011;5453;50.852;7.102;2022-10-16T15:15:12;0.85;;;0.40;;
10801;SDS011;5453;50.852;7.102;2022-10-16T15:18:06;0.95;;;0.50;;
10801;SDS011;5453;50.852;7.102;2022-10-16T15:20:38;0.93;;;0.70;;
10801;SDS011;5453;50.852;7.102;2022-10-16T15:23:13;1.20;;;0.70;;
10801;SDS011;5453;50.852;7.102;2022-10-16T15:25:47;0.75;;;0.60;;
10801;SDS011;5453;50.852;7.102;2022-10-16T15:30:54;1.20;;;0.70;;
10801;SDS011;5453;50.852;7.102;2022-10-16T15:33:29;0.98;;;0.57;;
10801;SDS011;5453;50.852;7.102;2022-10-16T15:36:04;0.70;;;0.70;;
10801;SDS011;5453;50.852;7.102;2022-10-16T15:38:37;2.63;;;1.10;;
10801;SDS011;5453;50.852;7.102;2022-10-16T15:41:09;2.35;;;0.68;;
10801;SDS011;5453;50.852;7.102;2022-10-16T15:43:41;0.40;;;0.40;;
10801;SDS011;5453;50.852;7.102;2022-10-16T15:46:14;1.27;;;0.70;;
10801;SDS011;5453;50.852;7.102;2022-10-16T15:48:48;1.23;;;0.90;;
10801;SDS011;5453;50.852;7.102;2022-10-16T15:51:20;1.35;;;0.68;;
10801;SDS011;5453;50.852;7.102;2022-10-16T15:53:52;1.08;;;0.60;;
10801;SDS011;5453;50.852;7.102;2022-10-16T15:56:25;1.15;;;0.60;;
10801;SDS011;5453;50.852;7.102;2022-10-16T15:58:58;1.67;;;0.80;;
10801;SDS011;5453;50.852;7.102;2022-10-16T16:01:32;1.80;;;0.80;;
10801;SDS011;5453;50.852;7.102;2022-10-16T16:04:06;0.80;;;0.65;;
10801;SDS011;5453;50.852;7.102;2022-10-16T16:06:38;0.80;;;0.52;;
10801;SDS011;5453;50.852;7.102;2022-10-16T16:09:14;1.95;;;0.60;;
10801;SDS011;5453;50.852;7.102;2022-10-16T16:11:46;0.52;;;0.50;;
10801;SDS011;5453;50.852;7.102;2022-10-16T16:14:19;0.85;;;0.63;;
10801;SDS011;5453;50.852;7.102;2022-10-16T16:16:51;0.82;;;0.50;;
10801;SDS011;5453;50.852;7.102;2022-10-16T16:19:25;2.08;;;0.70;;
10801;SDS011;5453;50.852;7.102;2022-10-16T16:21:57;2.03;;;0.82;;